createdAt,value
2018-12-29T00:03:40.067Z,0.53
2018-12-29T00:08:44.540Z,0.52
2018-12-29T00:13:55.928Z,0.47
2018-12-29T00:19:00.179Z,0.55
2018-12-29T00:24:07.141Z,0.58
2018-12-29T00:29:11.487Z,0.60
2018-12-29T00:34:16.185Z,0.61
2018-12-29T00:39:20.510Z,0.61
2018-12-29T00:44:24.755Z,0.66
2018-12-29T00:49:48.159Z,0.68
2018-12-29T00:54:52.405Z,0.66
2018-12-29T00:59:56.784Z,0.64
2018-12-29T01:05:01.383Z,0.63
2018-12-29T01:15:30.349Z,0.72
2018-12-29T01:20:53.672Z,0.69
2018-12-29T01:25:57.923Z,0.56
2018-12-29T01:31:21.230Z,0.60
2018-12-29T01:36:25.833Z,0.59
2018-12-29T01:41:49.163Z,0.61
2018-12-29T01:46:53.575Z,0.51
2018-12-29T01:52:16.910Z,0.62
2018-12-29T01:57:40.222Z,0.67
2018-12-29T02:03:03.579Z,0.72
2018-12-29T02:08:26.919Z,0.73
2018-12-29T02:13:43.819Z,0.70
2018-12-29T02:18:48.292Z,0.79
2018-12-29T02:24:11.699Z,0.76
2018-12-29T02:29:16.024Z,0.83
2018-12-29T02:34:20.300Z,0.71
2018-12-29T02:39:24.938Z,0.73
2018-12-29T02:44:48.530Z,0.73
2018-12-29T02:49:53.938Z,0.76
2018-12-29T02:55:17.557Z,0.78
2018-12-29T03:00:40.990Z,0.80
2018-12-29T03:05:45.221Z,0.72
2018-12-29T03:11:09.274Z,0.80
2018-12-29T03:16:27.988Z,0.70
2018-12-29T03:21:32.226Z,0.77
2018-12-29T03:26:36.732Z,0.79
2018-12-29T03:31:41.077Z,0.78
2018-12-29T03:36:45.346Z,0.71
2018-12-29T03:41:49.779Z,0.70
2018-12-29T03:46:54.403Z,0.68
2018-12-29T03:51:58.922Z,0.63
2018-12-29T03:57:03.183Z,0.65
2018-12-29T04:02:07.440Z,0.66
2018-12-29T04:07:30.757Z,0.62
2018-12-29T04:12:37.551Z,0.67
2018-12-29T04:17:42.114Z,0.76
2018-12-29T04:22:46.376Z,0.75
2018-12-29T04:27:50.652Z,0.80
2018-12-29T04:32:54.909Z,0.78
2018-12-29T04:37:59.153Z,0.74
2018-12-29T04:43:03.561Z,0.78
2018-12-29T04:48:07.822Z,0.79
2018-12-29T04:53:12.101Z,0.80
2018-12-29T04:58:16.810Z,0.80
2018-12-29T05:03:21.063Z,0.79
2018-12-29T05:08:25.576Z,0.79
2018-12-29T05:13:29.834Z,0.76
2018-12-29T05:18:34.311Z,0.81
2018-12-29T05:23:38.551Z,0.83
2018-12-29T05:28:42.796Z,0.83
2018-12-29T05:34:06.116Z,0.78
2018-12-29T05:39:10.739Z,0.78
2018-12-29T05:44:15.258Z,0.87
2018-12-29T05:49:19.739Z,0.89
2018-12-29T05:54:24.070Z,0.91
2018-12-29T05:59:28.794Z,0.95
2018-12-29T06:04:33.291Z,0.91
2018-12-29T06:09:37.913Z,0.95
2018-12-29T06:15:01.363Z,0.94
2018-12-29T06:20:05.879Z,1.01
2018-12-29T06:25:10.319Z,0.97
2018-12-29T06:30:14.570Z,1.01
2018-12-29T06:35:38.167Z,0.98
2018-12-29T06:40:42.489Z,1.00
2018-12-29T06:45:46.866Z,1.08
2018-12-29T06:50:51.100Z,1.09
2018-12-29T06:56:14.498Z,1.17
2018-12-29T07:01:18.898Z,1.13
2018-12-29T07:06:23.235Z,1.13
2018-12-29T07:11:27.843Z,1.15
2018-12-29T07:16:32.192Z,1.13
2018-12-29T07:21:36.582Z,1.12
2018-12-29T07:26:40.898Z,1.14
2018-12-29T07:31:45.166Z,1.15
2018-12-29T07:36:49.416Z,1.18
2018-12-29T07:41:53.680Z,1.16
2018-12-29T07:46:58.024Z,1.24
2018-12-29T07:52:02.276Z,1.23
2018-12-29T07:57:06.830Z,1.29
2018-12-29T08:02:30.155Z,1.25
2018-12-29T08:07:34.398Z,1.27
2018-12-29T08:12:57.736Z,1.27
2018-12-29T08:18:01.980Z,1.37
2018-12-29T08:33:48.768Z,1.49
2018-12-29T08:38:53.026Z,1.52
2018-12-29T08:44:16.359Z,1.60
2018-12-29T08:49:20.616Z,1.63
2018-12-29T08:54:43.942Z,1.63
2018-12-29T08:59:48.211Z,1.80
2018-12-29T09:04:52.559Z,1.87
2018-12-29T09:09:56.814Z,1.75
2018-12-29T09:15:01.145Z,1.87
2018-12-29T09:20:05.959Z,1.83
2018-12-29T09:25:10.234Z,1.97
2018-12-29T09:30:14.492Z,2.10
2018-12-29T09:35:37.811Z,2.17
2018-12-29T09:40:42.142Z,2.24
2018-12-29T09:46:05.484Z,2.25
2018-12-29T09:51:09.824Z,2.30
2018-12-29T09:56:14.251Z,2.29
2018-12-29T10:01:18.506Z,2.28
2018-12-29T10:06:22.761Z,2.28
2018-12-29T10:11:27.165Z,2.33
2018-12-29T10:16:50.475Z,2.34
2018-12-29T10:21:54.918Z,2.37
2018-12-29T10:26:59.214Z,2.44
2018-12-29T10:32:03.473Z,2.55
2018-12-29T10:37:26.787Z,2.62
2018-12-29T10:42:31.129Z,2.67
2018-12-29T10:47:35.441Z,2.77
2018-12-29T10:52:39.874Z,2.78
2018-12-29T10:57:44.297Z,2.76
2018-12-29T11:02:48.567Z,2.91
2018-12-29T11:07:52.945Z,2.92
2018-12-29T11:12:57.267Z,3.02
2018-12-29T11:18:01.730Z,3.02
2018-12-29T11:23:06.063Z,3.11
2018-12-29T11:28:10.431Z,3.30
2018-12-29T11:33:15.123Z,3.42
2018-12-29T11:38:19.373Z,3.44
2018-12-29T11:43:24.046Z,3.56
2018-12-29T11:48:28.426Z,3.65
2018-12-29T11:53:32.680Z,3.65
2018-12-29T11:58:56.005Z,3.74
2018-12-29T12:04:00.667Z,3.80
2018-12-29T12:09:25.405Z,3.77
2018-12-29T12:14:29.658Z,3.63
2018-12-29T12:19:34.003Z,3.51
2018-12-29T12:24:38.366Z,3.52
2018-12-29T12:29:42.859Z,3.60
2018-12-29T12:34:47.294Z,3.54
2018-12-29T12:39:51.782Z,3.61
2018-12-29T12:44:56.382Z,3.67
2018-12-29T12:50:00.878Z,3.68
2018-12-29T12:55:06.094Z,3.60
2018-12-29T13:00:29.418Z,3.54
2018-12-29T13:05:54.761Z,3.59
2018-12-29T13:10:59.121Z,3.61
2018-12-29T13:16:22.499Z,3.62
2018-12-29T13:21:45.936Z,3.64
2018-12-29T13:27:09.272Z,3.52
2018-12-29T13:32:26.551Z,3.45
2018-12-29T13:37:31.083Z,3.40
2018-12-29T13:42:54.728Z,3.36
2018-12-29T13:47:59.436Z,3.31
2018-12-29T13:53:03.710Z,3.35
2018-12-29T13:58:08.118Z,3.42
2018-12-29T14:03:31.941Z,3.39
2018-12-29T14:08:55.384Z,3.36
2018-12-29T14:14:18.720Z,3.39
2018-12-29T14:19:22.974Z,3.48
2018-12-29T14:24:27.222Z,3.53
2018-12-29T14:29:33.274Z,3.50
2018-12-29T14:34:50.414Z,3.46
2018-12-29T14:39:54.867Z,3.43
2018-12-29T14:45:00.184Z,3.38
2018-12-29T14:50:05.040Z,3.47
2018-12-29T14:55:28.454Z,3.45
2018-12-29T15:00:32.874Z,3.50
2018-12-29T15:05:38.912Z,3.44
2018-12-29T15:10:43.246Z,3.49
2018-12-29T15:15:48.024Z,3.54
2018-12-29T15:21:13.073Z,3.47
2018-12-29T15:26:17.707Z,3.49
2018-12-29T15:31:22.278Z,3.46
2018-12-29T15:36:26.725Z,3.44
2018-12-29T15:41:31.301Z,3.43
2018-12-29T15:46:37.295Z,3.45
2018-12-29T15:51:42.012Z,3.40
2018-12-29T15:57:05.396Z,3.44
2018-12-29T16:02:09.668Z,3.40
2018-12-29T16:07:14.102Z,3.39
2018-12-29T16:12:18.888Z,3.34
2018-12-29T16:17:23.301Z,3.31
2018-12-29T16:22:28.359Z,3.30
2018-12-29T16:27:32.899Z,3.30
2018-12-29T16:32:37.516Z,3.21
2018-12-29T16:37:41.960Z,3.16
2018-12-29T16:43:05.415Z,3.14
2018-12-29T16:48:09.851Z,3.12
2018-12-29T16:53:14.602Z,3.15
2018-12-29T16:58:18.993Z,3.13
2018-12-29T17:03:42.647Z,3.18
2018-12-29T17:08:46.912Z,3.18
2018-12-29T17:13:51.143Z,3.20
2018-12-29T17:19:15.057Z,3.18
2018-12-29T17:24:39.603Z,3.16
2018-12-29T17:29:45.825Z,3.14
2018-12-29T17:34:50.657Z,3.09
2018-12-29T17:39:55.188Z,2.99
2018-12-29T17:44:59.995Z,3.04
2018-12-29T17:50:23.703Z,3.05
2018-12-29T17:55:47.265Z,3.04
2018-12-29T18:01:10.666Z,2.98
2018-12-29T18:06:14.992Z,3.02
2018-12-29T18:11:38.413Z,3.01
2018-12-29T18:16:42.784Z,3.00
2018-12-29T18:21:48.778Z,3.01
2018-12-29T18:26:53.269Z,2.98
2018-12-29T18:32:16.592Z,3.00
2018-12-29T18:37:39.916Z,2.99
2018-12-29T18:42:44.398Z,2.99
2018-12-29T18:47:48.631Z,3.03
2018-12-29T18:53:12.220Z,3.06
2018-12-29T18:58:16.663Z,3.09
2018-12-29T19:03:39.986Z,3.14
2018-12-29T19:09:04.234Z,3.19
2018-12-29T19:14:09.051Z,3.20
2018-12-29T19:19:13.285Z,3.27
2018-12-29T19:24:17.840Z,3.27
2018-12-29T19:29:22.116Z,3.27
2018-12-29T19:34:26.679Z,3.25
2018-12-29T19:39:31.270Z,3.35
2018-12-29T19:44:35.855Z,3.28
2018-12-29T19:49:40.332Z,3.40
2018-12-29T19:54:44.677Z,3.43
2018-12-29T20:00:09.522Z,3.43
2018-12-29T20:05:14.032Z,3.45
2018-12-29T20:10:37.395Z,3.42
2018-12-29T20:15:43.354Z,3.49
2018-12-29T20:20:47.772Z,3.53
2018-12-29T20:25:52.522Z,3.56
2018-12-29T20:30:57.091Z,3.57
2018-12-29T20:36:01.806Z,3.62
2018-12-29T20:41:06.133Z,3.63
2018-12-29T20:46:12.220Z,3.62
2018-12-29T20:51:16.544Z,3.69
2018-12-29T20:56:39.856Z,3.70
2018-12-29T21:02:04.004Z,3.72
2018-12-29T21:07:08.255Z,3.78
2018-12-29T21:12:12.614Z,3.81
2018-12-29T21:17:17.059Z,3.81
2018-12-29T21:22:21.933Z,3.80
2018-12-29T21:27:26.455Z,3.84
2018-12-29T21:32:30.786Z,3.97
2018-12-29T21:37:35.216Z,4.18
2018-12-29T21:42:39.629Z,4.40
2018-12-29T21:47:44.037Z,4.52
2018-12-29T21:52:48.277Z,4.63
2018-12-29T21:57:52.961Z,4.69
2018-12-29T22:02:57.498Z,4.89
2018-12-29T22:08:21.368Z,5.09
2018-12-29T22:13:25.827Z,5.27
2018-12-29T22:18:30.711Z,5.37
2018-12-29T22:23:34.992Z,5.35
2018-12-29T22:28:39.479Z,5.40
2018-12-29T22:34:02.898Z,5.39
2018-12-29T22:39:07.982Z,5.64
2018-12-29T22:44:12.677Z,5.66
2018-12-29T22:49:36.169Z,5.93
2018-12-29T22:54:40.692Z,6.23
2018-12-29T22:59:45.979Z,6.33
2018-12-29T23:04:50.762Z,6.45
2018-12-29T23:09:56.739Z,6.55
2018-12-29T23:15:01.159Z,6.47
2018-12-29T23:20:05.568Z,6.58
2018-12-29T23:25:11.553Z,6.45
2018-12-29T23:30:16.095Z,6.43
2018-12-29T23:35:20.636Z,6.47
2018-12-29T23:40:25.178Z,6.44
2018-12-29T23:45:29.510Z,6.35
2018-12-29T23:50:33.911Z,6.39
2018-12-29T23:55:38.347Z,6.51
